Time;durP1;ratioP1;P1;durP2;ratioP2;P2;SDS_P1;SDS_P2;PMS_P1;PMS_P2;Temp;Humidity;BMP_temperature;BMP_pressure;BME280_temperature;BME280_humidity;BME280_pressure;Samples;Min_cycle;Max_cycle;Signal;HPM_P1;HPM_P2
2021/11/12 00:02:13;;;;;;;413.85;191.92;;;;;;;0.20;74.01;95153.66;1697997;83;21182;-67
2021/11/12 00:14:19;;;;;;;483.12;222.90;;;;;;;0.35;73.74;95158.82;1692872;83;20938;-68
2021/11/12 00:16:41;;;;;;;455.27;210.45;;;;;;;0.30;73.67;95157.81;1698261;83;21530;-67
2021/11/12 00:19:08;;;;;;;395.33;177.12;;;;;;;0.23;73.77;95148.25;1684554;83;21041;-68
2021/11/12 00:21:35;;;;;;;365.60;162.55;;;;;;;0.19;73.65;95146.09;1692271;83;21087;-67
2021/11/12 00:24:02;;;;;;;375.65;171.80;;;;;;;0.09;73.83;95150.84;1682918;83;21140;-67
2021/11/12 00:26:29;;;;;;;392.52;179.32;;;;;;;0.05;74.11;95147.30;1675266;84;20991;-68
2021/11/12 00:28:58;;;;;;;417.30;187.03;;;;;;;0.08;74.25;95151.20;1654012;85;21580;-67
2021/11/12 00:31:41;;;;;;;391.05;175.15;;;;;;;0.08;74.31;95160.08;1679075;84;21256;-68
2021/11/12 00:39:12;;;;;;;349.00;158.87;;;;;;;0.28;74.32;95154.70;1695889;83;21689;-66
2021/11/12 00:46:51;;;;;;;442.83;206.00;;;;;;;0.41;73.27;95152.50;1699915;83;21031;-68
2021/11/12 00:49:19;;;;;;;444.07;208.63;;;;;;;0.28;73.26;95152.56;1691669;83;21175;-67
2021/11/12 00:51:51;;;;;;;433.70;202.10;;;;;;;0.23;73.74;95158.31;1686258;83;20970;-68
2021/11/12 00:54:18;;;;;;;442.15;210.48;;;;;;;0.20;73.65;95151.70;1686382;83;21315;-67
2021/11/12 00:56:47;;;;;;;415.30;187.62;;;;;;;0.17;73.69;95160.57;1716470;83;20944;-67
2021/11/12 00:59:13;;;;;;;392.15;170.87;;;;;;;0.17;73.78;95163.27;1698243;83;21161;-67
2021/11/12 01:01:41;;;;;;;359.83;164.67;;;;;;;0.20;73.61;95163.88;1700108;83;21238;-67
2021/11/12 01:04:11;;;;;;;369.07;163.82;;;;;;;0.19;73.65;95160.97;1686849;83;20993;-68
2021/11/12 01:06:40;;;;;;;368.67;161.03;;;;;;;0.28;73.85;95166.09;1682595;83;21041;-67
2021/11/12 01:09:09;;;;;;;378.05;164.97;;;;;;;0.30;73.39;95160.52;1683060;83;21047;-67
2021/11/12 01:11:36;;;;;;;343.77;160.12;;;;;;;0.30;73.18;95160.52;1691363;83;21023;-67
2021/11/12 01:14:04;;;;;;;354.48;160.25;;;;;;;0.27;73.09;95158.56;1692665;83;21114;-67
2021/11/12 01:16:33;;;;;;;357.70;158.07;;;;;;;0.16;73.16;95152.25;1698287;83;21090;-66
2021/11/12 01:18:59;;;;;;;340.68;152.75;;;;;;;0.07;73.31;95154.46;1682198;82;21093;-67
2021/11/12 01:21:26;;;;;;;344.07;146.85;;;;;;;0.00;73.46;95157.10;1698926;83;21016;-68
2021/11/12 01:23:54;;;;;;;349.67;151.70;;;;;;;-0.09;73.52;95159.89;1703570;83;21038;-67
2021/11/12 01:26:22;;;;;;;347.60;150.42;;;;;;;-0.17;73.70;95162.88;1686225;83;21054;-67
2021/11/12 01:28:48;;;;;;;334.95;138.00;;;;;;;-0.21;73.94;95164.77;1689416;83;20989;-68
2021/11/12 01:31:15;;;;;;;296.00;135.70;;;;;;;-0.23;74.12;95175.17;1690498;83;20999;-66
2021/11/12 01:33:43;;;;;;;314.68;141.53;;;;;;;-0.28;74.21;95165.46;1691777;83;21047;-67
2021/11/12 01:38:45;;;;;;;283.77;128.60;;;;;;;-0.30;74.71;95171.02;1684344;83;21180;-66
2021/11/12 01:41:14;;;;;;;290.48;123.97;;;;;;;-0.25;74.80;95176.13;1682133;83;21028;-68
2021/11/12 01:43:44;;;;;;;242.72;110.88;;;;;;;-0.22;74.62;95174.03;1713865;83;20967;-66
2021/11/12 01:48:48;;;;;;;252.15;115.60;;;;;;;-0.20;74.41;95175.20;1678912;83;21212;-66
2021/11/12 01:51:35;;;;;;;257.32;122.00;;;;;;;-0.17;74.44;95176.40;1690013;83;21193;-69
2021/11/12 01:54:23;;;;;;;260.45;124.62;;;;;;;-0.20;74.55;95185.25;1675780;83;21011;-68
2021/11/12 02:01:21;;;;;;;263.77;119.02;;;;;;;-0.20;74.26;95186.60;1677590;83;20971;-68
2021/11/12 02:03:51;;;;;;;222.85;105.22;;;;;;;-0.29;74.39;95193.64;1680098;83;21755;-67
2021/11/12 02:06:20;;;;;;;254.60;112.10;;;;;;;-0.36;74.57;95192.77;1710680;83;20917;-67
2021/11/12 02:08:47;;;;;;;229.50;104.55;;;;;;;-0.42;74.69;95192.89;1702644;83;20975;-66
2021/11/12 02:11:15;;;;;;;227.45;104.17;;;;;;;-0.51;74.77;95189.11;1703393;83;21625;-69
2021/11/12 02:13:44;;;;;;;238.95;104.97;;;;;;;-0.56;74.94;95187.30;1681614;83;21095;-67
2021/11/12 02:16:27;;;;;;;211.15;100.25;;;;;;;-0.60;75.12;95190.52;1702729;83;21824;-68
2021/11/12 02:18:52;;;;;;;199.47;100.90;;;;;;;-0.60;75.41;95187.83;1687015;83;21072;-68
2021/11/12 02:26:22;;;;;;;190.80;89.20;;;;;;;-0.41;75.45;95189.05;1682811;83;20975;-66
2021/11/12 02:28:53;;;;;;;202.57;97.35;;;;;;;-0.34;75.40;95186.42;1713857;82;21145;-67
2021/11/12 02:31:17;;;;;;;223.53;100.15;;;;;;;-0.23;75.09;95192.75;1698160;83;21138;-68
2021/11/12 02:33:43;;;;;;;215.50;98.30;;;;;;;-0.24;74.70;95193.31;1684377;83;21085;-66
2021/11/12 02:36:13;;;;;;;171.75;86.37;;;;;;;-0.30;74.47;95193.99;1662126;83;21109;-67
2021/11/12 02:38:43;;;;;;;162.82;76.62;;;;;;;-0.44;74.28;95187.84;1680805;82;21698;-66
2021/11/12 02:41:10;;;;;;;176.00;82.47;;;;;;;-0.53;74.74;95191.41;1682089;83;21097;-65
2021/11/12 02:43:38;;;;;;;188.07;87.50;;;;;;;-0.55;74.74;95187.50;1690708;83;21122;-67
2021/11/12 02:46:09;;;;;;;182.07;85.95;;;;;;;-0.59;74.71;95200.95;1686379;83;21266;-66
2021/11/12 02:48:39;;;;;;;;;;;;;;;-0.67;74.79;95195.25;1684061;83;21131;-66
2021/11/12 02:51:09;;;;;;;167.28;77.12;;;;;;;-0.72;74.85;95198.84;1696921;83;20466;-68
2021/11/12 02:53:36;;;;;;;148.90;71.10;;;;;;;-0.74;75.07;95194.38;1663342;84;21852;-67
2021/11/12 02:56:07;;;;;;;189.72;83.72;;;;;;;-0.74;75.02;95201.89;1653362;85;21110;-67
2021/11/12 02:58:33;;;;;;;187.18;86.12;;;;;;;-0.74;75.01;95192.44;1672035;84;21055;-67
2021/11/12 03:01:00;;;;;;;175.75;79.35;;;;;;;-0.75;75.06;95186.83;1629635;85;20983;-66
2021/11/12 03:03:28;;;;;;;182.15;84.20;;;;;;;-0.74;74.99;95186.27;1667047;85;20960;-66
2021/11/12 03:05:54;;;;;;;160.20;78.33;;;;;;;-0.71;74.99;95194.98;1697196;83;21072;-67
2021/11/12 03:08:21;;;;;;;173.72;78.40;;;;;;;-0.71;74.97;95195.78;1674629;85;21549;-67
2021/11/12 03:10:52;;;;;;;163.62;76.72;;;;;;;-0.70;74.96;95193.28;1685322;84;21502;-66
2021/11/12 03:13:18;;;;;;;142.47;70.47;;;;;;;-0.67;75.14;95190.41;1681202;84;21454;-67
2021/11/12 03:15:46;;;;;;;164.47;73.90;;;;;;;-0.65;75.09;95187.56;1681230;83;20967;-67
2021/11/12 03:18:12;;;;;;;143.17;68.17;;;;;;;-0.59;75.14;95188.03;1682679;83;21220;-67
2021/11/12 03:20:39;;;;;;;140.45;66.95;;;;;;;-0.54;75.02;95187.70;1696688;83;21535;-67
2021/11/12 03:23:12;;;;;;;119.87;57.05;;;;;;;-0.51;74.64;95189.67;1682869;83;21002;-68
2021/11/12 03:25:47;;;;;;;136.60;67.70;;;;;;;-0.52;74.43;95194.87;1702855;83;21020;-68
2021/11/12 03:28:33;;;;;;;123.22;63.02;;;;;;;-0.41;74.75;95189.05;1698124;83;21091;-66
2021/11/12 03:31:16;;;;;;;123.25;57.90;;;;;;;-0.25;74.30;95189.64;1686763;83;21127;-67
2021/11/12 03:47:09;;;;;;;119.47;57.40;;;;;;;-0.13;73.13;95188.82;1709600;83;21079;-68
2021/11/12 03:56:30;;;;;;;154.35;76.57;;;;;;;-0.28;72.60;95170.87;1692416;83;21050;-68
2021/11/12 04:06:13;;;;;;;148.78;76.75;;;;;;;-0.08;72.27;95165.50;1690329;83;21105;-69
2021/11/12 05:44:09;;;;;;;154.57;77.65;;;;;;;-0.45;71.44;95194.39;1687333;83;21020;-65
2021/11/12 05:46:41;;;;;;;151.22;78.37;;;;;;;-0.40;71.42;95194.66;1686306;83;21825;-69
2021/11/12 05:52:15;;;;;;;165.95;83.10;;;;;;;-0.34;71.82;95203.98;1705982;83;21015;-67
2021/11/12 05:57:15;;;;;;;164.60;89.45;;;;;;;-0.19;71.27;95208.43;1685882;83;21074;-65
2021/11/12 05:59:42;;;;;;;173.20;88.05;;;;;;;-0.11;71.08;95206.01;1671990;84;21883;-69
2021/11/12 06:02:09;;;;;;;178.75;91.50;;;;;;;-0.04;71.04;95208.81;1690223;83;21015;-68
2021/11/12 06:04:35;;;;;;;147.53;74.50;;;;;;;0.03;70.74;95211.03;1688607;83;21483;-66
2021/11/12 06:07:05;;;;;;;155.22;70.75;;;;;;;0.02;70.55;95214.30;1689046;83;21079;-68
2021/11/12 06:09:32;;;;;;;206.47;101.12;;;;;;;-0.06;70.25;95219.22;1694270;83;21075;-67
2021/11/12 06:11:58;;;;;;;202.47;98.03;;;;;;;-0.20;70.21;95213.63;1703445;83;21147;-68
2021/11/12 06:14:26;;;;;;;196.30;90.05;;;;;;;-0.26;70.47;95221.87;1710293;83;21499;-68
2021/11/12 06:16:54;;;;;;;173.70;88.55;;;;;;;-0.27;70.54;95208.91;1689876;83;21055;-70
2021/11/12 06:19:21;;;;;;;185.43;87.50;;;;;;;-0.34;70.50;95214.23;1687125;83;20991;-69
2021/11/12 06:21:49;;;;;;;187.75;85.70;;;;;;;-0.35;70.85;95215.95;1691767;83;20990;-68
2021/11/12 06:24:16;;;;;;;207.47;100.10;;;;;;;-0.36;71.07;95215.18;1680884;83;21318;-69
2021/11/12 06:26:52;;;;;;;185.73;95.22;;;;;;;-0.32;71.23;95215.20;1670840;83;21200;-70
2021/11/12 06:29:20;;;;;;;192.87;92.95;;;;;;;-0.29;71.27;95217.17;1687263;83;21050;-68
2021/11/12 06:31:46;;;;;;;200.10;93.52;;;;;;;-0.28;71.36;95214.11;1695460;83;21022;-70
2021/11/12 06:34:13;;;;;;;193.37;91.78;;;;;;;-0.22;71.33;95219.39;1695792;83;21126;-69
2021/11/12 06:36:40;;;;;;;194.32;102.75;;;;;;;-0.10;71.55;95213.77;1695873;84;21055;-69
2021/11/12 06:39:08;;;;;;;151.75;79.17;;;;;;;0.02;71.22;95214.30;1696912;82;21533;-71
2021/11/12 06:41:52;;;;;;;180.67;94.70;;;;;;;0.07;70.92;95213.95;1711312;82;21058;-67
2021/11/12 06:44:26;;;;;;;167.62;88.78;;;;;;;0.07;70.87;95202.38;1713499;82;21070;-70
2021/11/12 06:49:24;;;;;;;145.55;75.83;;;;;;;0.25;70.82;95210.88;1695217;83;21843;-65
2021/11/12 06:51:51;;;;;;;149.18;79.07;;;;;;;0.32;70.57;95208.27;1698858;83;21608;-69
2021/11/12 06:54:18;;;;;;;183.55;94.52;;;;;;;0.36;70.74;95210.43;1678777;83;21100;-72
2021/11/12 06:56:47;;;;;;;152.72;84.52;;;;;;;0.47;70.52;95204.56;1669596;83;21015;-69
2021/11/12 06:59:14;;;;;;;130.97;67.42;;;;;;;0.59;70.37;95209.69;1681946;82;21049;-68
2021/11/12 07:01:42;;;;;;;149.20;75.70;;;;;;;0.68;70.19;95210.73;1685040;83;21126;-65
2021/11/12 07:04:09;;;;;;;119.30;64.60;;;;;;;0.84;70.10;95216.13;1676053;83;21060;-69
2021/11/12 07:06:36;;;;;;;114.17;59.15;;;;;;;0.96;69.96;95206.94;1680585;82;21078;-64
2021/11/12 07:09:06;;;;;;;118.17;59.03;;;;;;;1.05;69.75;95206.81;1701799;82;21160;-65
2021/11/12 07:11:36;;;;;;;121.75;66.42;;;;;;;1.10;69.57;95201.64;1677968;82;21051;-70
2021/11/12 07:14:06;;;;;;;142.40;75.85;;;;;;;1.18;69.50;95208.66;1691799;82;21087;-70
2021/11/12 07:16:33;;;;;;;139.72;74.50;;;;;;;1.25;69.34;95201.36;1683777;82;21006;-63
2021/11/12 07:19:02;;;;;;;120.13;66.72;;;;;;;1.32;69.25;95202.75;1692454;82;21078;-63
2021/11/12 07:21:28;;;;;;;130.63;67.67;;;;;;;1.45;69.12;95200.50;1684893;83;21045;-67
2021/11/12 07:23:55;;;;;;;136.88;73.15;;;;;;;1.58;68.95;95198.47;1682550;83;21041;-71
2021/11/12 07:26:22;;;;;;;115.42;61.70;;;;;;;1.68;68.76;95192.31;1694871;82;21139;-68
2021/11/12 07:28:49;;;;;;;128.53;64.77;;;;;;;1.79;68.45;95197.23;1683010;83;21119;-69
2021/11/12 07:31:18;;;;;;;123.82;63.23;;;;;;;1.91;68.25;95203.66;1682676;83;21054;-72
2021/11/12 07:33:46;;;;;;;119.50;63.05;;;;;;;2.03;67.82;95201.41;1708936;83;21843;-64
2021/11/12 07:36:22;;;;;;;89.05;46.92;;;;;;;2.19;67.47;95205.94;1663497;83;21023;-69
2021/11/12 07:41:24;;;;;;;92.53;43.58;;;;;;;2.47;66.36;95191.67;1664673;83;21117;-69
2021/11/12 07:49:00;;;;;;;48.45;30.10;;;;;;;2.82;64.83;95186.27;1667069;82;21053;-69
2021/11/12 07:51:27;;;;;;;51.05;29.82;;;;;;;2.90;64.43;95186.48;1662626;82;22222;-67
2021/11/12 07:53:54;;;;;;;57.40;31.55;;;;;;;3.00;64.16;95179.69;1698816;82;22293;-67
2021/11/12 07:56:25;;;;;;;55.00;32.17;;;;;;;3.12;63.67;95182.03;1704821;82;21646;-67
2021/11/12 07:58:52;;;;;;;45.43;28.52;;;;;;;3.25;63.45;95182.41;1670067;83;21093;-68
2021/11/12 08:01:19;;;;;;;55.67;32.05;;;;;;;3.36;62.60;95183.16;1684487;82;21082;-71
2021/11/12 08:03:49;;;;;;;74.07;37.55;;;;;;;3.46;62.07;95181.02;1667485;83;21114;-69
2021/11/12 08:06:17;;;;;;;65.00;33.15;;;;;;;3.56;61.93;95177.71;1676922;82;21125;-66
2021/11/12 08:09:31;;;;;;;41.02;26.02;;;;;;;3.67;62.06;95175.73;1662491;84;21059;-67
2021/11/12 08:11:18;;;;;;;55.20;30.50;;;;;;;3.75;61.60;95175.13;1654925;83;21087;-63
2021/11/12 08:13:51;;;;;;;53.58;28.52;;;;;;;3.84;61.31;95170.83;1696307;82;21117;-65
2021/11/12 08:16:28;;;;;;;63.30;29.05;;;;;;;4.01;60.66;95164.55;1667460;82;21175;-61
2021/11/12 08:21:47;;;;;;;85.00;36.03;;;;;;;4.39;59.92;95158.14;1676156;83;21625;-66
2021/11/12 08:24:29;;;;;;;76.75;33.18;;;;;;;4.56;59.19;95167.38;1683230;83;21804;-69
2021/11/12 08:26:57;;;;;;;59.50;28.77;;;;;;;4.71;58.33;95162.03;1690004;82;21051;-74
2021/11/12 08:29:34;;;;;;;50.92;24.52;;;;;;;4.82;57.38;95163.50;1686615;82;21464;-71
2021/11/12 08:34:20;;;;;;;30.30;16.05;;;;;;;5.18;55.91;95152.52;1673130;82;21490;-67
2021/11/12 08:36:54;;;;;;;36.65;17.23;;;;;;;5.34;54.82;95158.22;1682887;82;21651;-68
2021/11/12 08:41:57;;;;;;;55.00;23.45;;;;;;;5.79;53.48;95143.39;1644872;83;21813;-63
2021/11/12 08:44:24;;;;;;;45.15;21.62;;;;;;;6.10;52.73;95149.06;1677768;82;21073;-66
2021/11/12 08:47:06;;;;;;;52.67;25.72;;;;;;;6.32;51.80;95151.74;1686252;82;21060;-64
2021/11/12 08:49:29;;;;;;;48.23;23.35;;;;;;;6.45;51.12;95145.89;1693652;83;21058;-63
2021/11/12 08:51:54;;;;;;;55.25;24.00;;;;;;;6.79;50.58;95147.95;1696240;82;21100;-76
2021/11/12 08:54:25;;;;;;;41.50;21.42;;;;;;;7.10;50.27;95141.41;1674642;83;22383;-67
2021/11/12 08:56:48;;;;;;;58.25;24.52;;;;;;;7.45;49.03;95136.72;1686096;83;21066;-68
2021/11/12 08:59:16;;;;;;;45.52;22.45;;;;;;;7.79;48.57;95134.55;1706351;82;21561;-66
2021/11/12 09:01:43;;;;;;;40.78;21.48;;;;;;;8.24;47.33;95131.53;1682571;83;21550;-65
2021/11/12 09:04:09;;;;;;;51.85;24.70;;;;;;;8.50;46.46;95125.70;1700850;83;21573;-67
2021/11/12 09:06:36;;;;;;;47.65;22.07;;;;;;;8.63;45.76;95126.61;1677847;83;21285;-67
2021/11/12 09:09:03;;;;;;;39.10;21.97;;;;;;;8.77;45.43;95118.83;1680490;82;21045;-70
2021/11/12 09:11:29;;;;;;;38.78;21.20;;;;;;;9.09;44.67;95114.75;1683772;83;21169;-64
2021/11/12 09:14:02;;;;;;;47.38;21.75;;;;;;;9.47;44.16;95111.66;1692986;83;21031;-69
2021/11/12 09:16:35;;;;;;;50.88;22.22;;;;;;;9.70;43.38;95103.98;1686399;83;21129;-67
2021/11/12 09:19:04;;;;;;;47.80;21.20;;;;;;;10.10;42.33;95092.11;1696290;83;21880;-67
2021/11/12 09:21:33;;;;;;;45.83;23.60;;;;;;;10.67;41.78;95096.14;1701911;82;21046;-62
2021/11/12 09:24:00;;;;;;;46.95;22.07;;;;;;;11.07;40.88;95085.05;1688068;82;21037;-66
2021/11/12 09:26:28;;;;;;;38.23;21.25;;;;;;;11.05;40.84;95086.09;1694420;82;21425;-69
2021/11/12 09:28:54;;;;;;;32.35;18.87;;;;;;;11.10;40.86;95086.13;1676054;83;21204;-69
2021/11/12 09:31:23;;;;;;;30.50;18.55;;;;;;;11.21;40.66;95085.95;1678632;83;21102;-62
2021/11/12 09:33:51;;;;;;;26.37;16.73;;;;;;;11.30;40.30;95081.92;1687946;82;21952;-66
2021/11/12 09:36:18;;;;;;;36.95;16.62;;;;;;;11.39;39.98;95073.74;1668626;83;21077;-65
2021/11/12 09:38:44;;;;;;;29.18;16.85;;;;;;;11.33;39.90;95065.88;1694330;83;22006;-64
2021/11/12 09:41:11;;;;;;;33.58;16.75;;;;;;;11.30;39.88;95057.14;1666890;83;21098;-66
2021/11/12 09:43:38;;;;;;;26.77;15.80;;;;;;;11.35;39.95;95055.19;1700471;83;21145;-67
2021/11/12 09:46:05;;;;;;;29.55;15.83;;;;;;;11.51;39.84;95059.17;1713336;82;20999;-70
2021/11/12 09:48:31;;;;;;;30.92;14.60;;;;;;;11.88;39.32;95058.30;1711302;82;21118;-67
2021/11/12 09:50:58;;;;;;;30.52;14.43;;;;;;;12.36;38.15;95050.84;1682221;83;21035;-70
2021/11/12 09:53:25;;;;;;;26.93;14.93;;;;;;;12.80;37.34;95049.52;1704389;82;21663;-66
2021/11/12 09:55:54;;;;;;;27.95;14.83;;;;;;;13.11;36.56;95046.16;1656509;82;21120;-69
2021/11/12 09:58:20;;;;;;;28.30;14.43;;;;;;;13.25;36.16;95036.66;1687207;82;21138;-66
2021/11/12 10:00:54;;;;;;;22.20;13.32;;;;;;;13.38;35.77;95027.65;1663067;83;21903;-67
2021/11/12 10:03:17;;;;;;;23.05;13.45;;;;;;;13.43;35.21;95025.66;1689519;83;21058;-68
2021/11/12 10:05:47;;;;;;;24.92;14.58;;;;;;;13.55;35.03;95020.61;1681234;83;21035;-62
2021/11/12 10:08:26;;;;;;;30.48;15.03;;;;;;;13.72;34.92;95019.69;1666966;83;21141;-66
2021/11/12 10:11:01;;;;;;;29.90;14.85;;;;;;;13.94;34.54;95025.83;1673192;83;21203;-73
2021/11/12 10:13:38;;;;;;;28.10;14.15;;;;;;;14.14;33.96;95013.70;1689427;82;21043;-70
2021/11/12 10:19:12;;;;;;;26.62;13.58;;;;;;;14.84;33.38;95002.28;1680707;83;21159;-69
2021/11/12 10:21:50;;;;;;;20.17;12.45;;;;;;;15.29;32.43;94996.55;1670711;83;21177;-66
2021/11/12 10:24:26;;;;;;;17.57;11.33;;;;;;;15.60;32.33;94990.04;1682766;83;21556;-63
2021/11/12 10:26:56;;;;;;;24.07;13.05;;;;;;;15.98;31.55;94987.88;1684783;82;21056;-73
2021/11/12 10:29:31;;;;;;;22.10;12.93;;;;;;;16.30;31.35;94983.55;1682982;82;21081;-59
2021/11/12 10:32:07;;;;;;;21.87;12.28;;;;;;;16.55;30.72;94988.58;1683757;82;21174;-70
2021/11/12 10:34:38;;;;;;;22.07;11.73;;;;;;;16.75;30.40;94985.87;1700709;82;22010;-71
2021/11/12 10:37:11;;;;;;;31.23;15.80;;;;;;;17.20;30.04;94981.13;1679370;83;21058;-64
2021/11/12 10:39:49;;;;;;;39.20;17.67;;;;;;;17.71;29.29;94979.95;1699568;82;20983;-63
2021/11/12 10:42:24;;;;;;;31.93;17.35;;;;;;;18.08;28.94;94980.90;1677758;82;21543;-67
2021/11/12 10:44:56;;;;;;;55.40;18.77;;;;;;;18.16;29.66;94976.45;1671523;83;21698;-62
2021/11/12 10:47:25;;;;;;;;;;;;;;;18.24;29.55;94976.92;1685487;83;21609;-63
2021/11/12 10:49:58;;;;;;;47.35;23.95;;;;;;;18.40;29.59;94964.56;1682002;82;20212;-66
2021/11/12 10:52:27;;;;;;;39.75;21.60;;;;;;;18.65;28.90;94967.20;1687070;83;21605;-68
2021/11/12 10:55:16;;;;;;;60.73;21.25;;;;;;;19.00;29.10;94957.33;1671652;84;21046;-70
2021/11/12 10:58:00;;;;;;;30.97;17.95;;;;;;;19.52;28.62;94951.73;1681078;82;21105;-66
2021/11/12 11:00:31;;;;;;;34.35;19.20;;;;;;;20.01;27.78;94941.41;1683791;83;21149;-66
2021/11/12 11:03:05;;;;;;;29.25;18.40;;;;;;;20.25;27.53;94944.53;1683219;82;21100;-68
2021/11/12 11:05:50;;;;;;;18.42;13.30;;;;;;;20.62;26.99;94927.70;1676093;82;21122;-61
2021/11/12 11:08:21;;;;;;;21.73;13.05;;;;;;;20.90;26.50;94932.67;1663634;82;21518;-60
2021/11/12 11:10:56;;;;;;;19.07;13.55;;;;;;;20.85;26.41;94924.28;1685592;82;21098;-66
2021/11/12 11:13:27;;;;;;;24.37;15.05;;;;;;;20.85;26.08;94930.64;1691961;82;21298;-64
2021/11/12 11:16:03;;;;;;;21.02;11.70;;;;;;;21.13;25.81;94931.38;1679460;83;21013;-66
2021/11/12 11:18:35;;;;;;;20.68;10.82;;;;;;;21.44;25.52;94926.11;1681752;83;21070;-62
2021/11/12 11:21:43;;;;;;;12.82;8.98;;;;;;;21.55;25.06;94921.86;1673947;83;21103;-66
2021/11/12 11:24:00;;;;;;;11.15;7.72;;;;;;;21.92;24.91;94927.23;1670584;83;21191;-68
2021/11/12 11:26:38;;;;;;;16.67;9.00;;;;;;;22.46;23.75;94923.38;1677057;83;21981;-67
2021/11/12 11:29:10;;;;;;;14.43;8.75;;;;;;;22.92;23.59;94918.31;1680327;83;21058;-71
2021/11/12 11:31:36;;;;;;;10.40;7.85;;;;;;;23.30;22.72;94922.21;1677292;83;21146;-69
2021/11/12 11:34:03;;;;;;;9.98;6.53;;;;;;;23.60;21.86;94927.77;1709594;83;21168;-69
2021/11/12 11:36:33;;;;;;;10.88;7.87;;;;;;;23.80;22.04;94919.63;1684610;83;21061;-67
2021/11/12 11:39:04;;;;;;;22.87;9.70;;;;;;;24.02;21.86;94910.94;1680250;83;22146;-67
2021/11/12 11:41:31;;;;;;;14.93;7.40;;;;;;;24.25;21.56;94911.53;1688635;83;21074;-69
2021/11/12 11:43:58;;;;;;;8.08;6.00;;;;;;;24.78;21.16;94902.70;1649784;84;21011;-65
2021/11/12 11:46:35;;;;;;;11.90;6.75;;;;;;;25.03;20.15;94904.07;1679991;83;21569;-65
2021/11/12 11:49:14;;;;;;;15.93;8.98;;;;;;;25.06;20.21;94898.13;1679174;82;21537;-69
2021/11/12 11:51:59;;;;;;;14.28;8.20;;;;;;;25.29;20.79;94900.69;1694865;82;21146;-67
2021/11/12 11:54:27;;;;;;;16.00;8.38;;;;;;;25.43;19.88;94898.64;1680719;83;21098;-70
2021/11/12 11:56:59;;;;;;;15.90;9.33;;;;;;;25.59;19.79;94894.13;1679895;84;21075;-70
2021/11/12 11:59:35;;;;;;;14.37;8.37;;;;;;;25.94;19.47;94889.48;1690382;83;21445;-68
2021/11/12 12:02:02;;;;;;;14.13;7.67;;;;;;;26.29;19.10;94882.67;1625143;86;21888;-65
2021/11/12 12:04:34;;;;;;;16.07;9.68;;;;;;;26.58;18.72;94885.77;1617305;85;22114;-62
2021/11/12 12:07:10;;;;;;;13.28;7.30;;;;;;;26.63;18.68;94885.55;1640525;83;21082;-66
2021/11/12 12:09:52;;;;;;;16.95;8.15;;;;;;;26.61;19.10;94890.31;1643380;84;21130;-69
2021/11/12 12:12:37;;;;;;;11.63;6.50;;;;;;;26.59;18.90;94880.23;1677134;83;21265;-64
2021/11/12 12:15:12;;;;;;;25.20;10.08;;;;;;;26.55;19.01;94874.81;1674827;82;21149;-67
2021/11/12 12:17:45;;;;;;;12.75;7.80;;;;;;;26.29;18.67;94870.64;1670920;82;22660;-67
2021/11/12 12:37:11;;;;;;;11.53;7.22;;;;;;;26.29;19.42;94861.52;1682000;82;21011;-69
2021/11/12 13:25:53;;;;;;;18.45;11.83;;;;;;;24.21;23.42;94863.91;1692036;82;21635;-62
2021/11/12 13:28:36;;;;;;;20.00;10.53;;;;;;;23.53;23.77;94863.10;1694548;82;21819;-63
2021/11/12 13:31:09;;;;;;;13.40;8.90;;;;;;;22.68;24.47;94872.72;1684792;82;21062;-65
2021/11/12 13:33:49;;;;;;;18.67;10.72;;;;;;;21.73;25.56;94866.70;1654121;83;21102;-71
2021/11/12 13:36:24;;;;;;;18.15;11.55;;;;;;;21.09;26.42;94872.11;1680965;82;21130;-67
2021/11/12 13:39:11;;;;;;;26.05;12.30;;;;;;;20.47;27.34;94871.89;1675860;83;22238;-73
2021/11/12 13:41:40;;;;;;;40.85;18.67;;;;;;;20.15;28.05;94863.61;1672047;83;22318;-71
2021/11/12 13:44:13;;;;;;;51.42;23.90;;;;;;;19.88;28.27;94864.30;1687133;82;21123;-67
2021/11/12 13:46:49;;;;;;;;;;;;;;;19.62;27.53;94865.13;1669772;84;22570;-66
2021/11/12 13:49:38;;;;;;;24.65;13.58;;;;;;;19.15;27.57;94872.88;1672089;82;20216;-70
2021/11/12 13:52:17;;;;;;;31.02;18.32;;;;;;;18.79;27.63;94872.28;1633753;85;21089;-69
2021/11/12 13:54:57;;;;;;;43.08;18.20;;;;;;;18.48;27.96;94874.34;1684951;83;21182;-73
2021/11/12 13:57:27;;;;;;;39.25;19.12;;;;;;;18.04;28.47;94875.94;1682746;82;21680;-65
2021/11/12 13:59:58;;;;;;;38.23;15.10;;;;;;;17.34;29.12;94877.45;1675565;83;21075;-72
2021/11/12 14:02:28;;;;;;;32.67;15.63;;;;;;;16.71;30.02;94879.09;1693749;82;21010;-71
2021/11/12 14:05:12;;;;;;;43.63;19.35;;;;;;;16.11;30.78;94885.05;1685495;83;21460;-69
2021/11/12 14:07:39;;;;;;;36.17;21.35;;;;;;;15.44;31.72;94872.61;1690240;82;21141;-67
2021/11/12 14:10:11;;;;;;;50.45;21.73;;;;;;;14.96;32.51;94878.02;1694527;83;21064;-72
2021/11/12 14:12:56;;;;;;;;;;;;;;;14.56;33.62;94885.17;1691636;83;21507;-71
2021/11/12 14:15:28;;;;;;;111.05;29.15;;;;;;;14.14;34.59;94883.02;1677265;82;20206;-72
2021/11/12 14:21:13;;;;;;;87.82;32.73;;;;;;;13.37;37.46;94886.55;1666599;83;21933;-71
2021/11/12 14:24:13;;;;;;;64.50;26.70;;;;;;;13.02;38.64;94892.81;1678472;82;21034;-72
2021/11/12 14:26:37;;;;;;;107.32;40.05;;;;;;;12.66;38.60;94892.13;1678066;82;21068;-73
2021/11/12 14:29:31;;;;;;;89.05;39.65;;;;;;;12.31;39.85;94890.05;1677570;83;21035;-74
2021/11/12 14:31:50;;;;;;;96.92;35.95;;;;;;;12.07;40.70;94893.14;1675477;83;21543;-74
2021/11/12 14:34:42;;;;;;;60.60;29.37;;;;;;;11.79;41.43;94894.23;1674078;83;21161;-73
2021/11/12 14:37:14;;;;;;;;;;;;;;;;;;;;;
2021/11/12 14:39:48;;;;;;;63.15;30.55;;;;;;;11.14;43.04;94905.08;1665219;83;21045;-64
2021/11/12 14:45:13;;;;;;;121.72;47.98;;;;;;;10.60;44.29;94905.94;1698062;82;21603;-61
2021/11/12 14:47:57;;;;;;;116.77;52.48;;;;;;;10.40;45.11;94909.55;1665629;83;21171;-70
2021/11/12 14:53:18;;;;;;;119.80;39.67;;;;;;;9.84;46.79;94917.36;1677050;83;21146;-61
2021/11/12 14:55:43;;;;;;;168.70;76.77;;;;;;;9.61;46.46;94919.03;1682139;83;22135;-63
2021/11/12 14:58:14;;;;;;;146.57;62.80;;;;;;;9.38;46.68;94922.02;1684310;83;21021;-60
2021/11/12 15:00:41;;;;;;;139.52;63.45;;;;;;;9.18;46.66;94931.80;1687502;83;21184;-66
2021/11/12 15:03:08;;;;;;;178.23;76.85;;;;;;;8.99;46.68;94937.41;1681570;83;21121;-64
2021/11/12 15:05:37;;;;;;;212.55;78.67;;;;;;;8.81;46.57;94939.84;1696067;83;21057;-67
2021/11/12 15:08:12;;;;;;;230.83;96.32;;;;;;;8.60;47.02;94941.75;1687692;83;21506;-65
2021/11/12 15:10:35;;;;;;;224.22;89.17;;;;;;;8.41;47.51;94938.50;1680116;83;21538;-66
2021/11/12 15:13:03;;;;;;;224.85;84.95;;;;;;;8.25;48.19;94942.59;1700988;83;21169;-67
2021/11/12 15:15:29;;;;;;;206.02;87.72;;;;;;;8.09;48.90;94942.55;1668040;83;20983;-68
2021/11/12 15:17:58;;;;;;;208.15;87.90;;;;;;;7.96;49.40;94940.90;1688172;83;21015;-62
2021/11/12 15:20:27;;;;;;;209.18;81.32;;;;;;;7.83;49.43;94949.02;1690845;84;21554;-65
2021/11/12 15:30:38;;;;;;;204.63;72.05;;;;;;;7.36;52.27;94959.20;1681819;84;21156;-66
2021/11/12 15:33:05;;;;;;;237.40;73.92;;;;;;;7.19;52.56;94965.17;1679652;83;20971;-67
2021/11/12 15:35:33;;;;;;;270.02;84.13;;;;;;;7.00;53.70;94960.27;1680075;83;21512;-66
2021/11/12 15:48:10;;;;;;;210.63;84.05;;;;;;;6.43;55.36;94968.70;1684810;83;21602;-66
2021/11/12 15:59:04;;;;;;;270.25;112.00;;;;;;;6.00;57.25;94995.70;1696300;83;21003;-66
2021/11/12 16:14:52;;;;;;;319.65;120.37;;;;;;;5.56;59.20;95025.28;1708812;83;21071;-65
2021/11/12 16:25:32;;;;;;;277.80;98.70;;;;;;;5.23;60.83;95035.59;1669893;84;21085;-67
2021/11/12 16:28:03;;;;;;;313.77;108.60;;;;;;;5.03;61.35;95040.69;1671884;85;20980;-69
2021/11/12 16:30:33;;;;;;;373.32;162.25;;;;;;;4.88;61.70;95047.44;1648664;85;21201;-70
2021/11/12 16:32:59;;;;;;;354.82;181.07;;;;;;;4.77;61.80;95046.75;1676503;84;21468;-70
2021/11/12 16:35:31;;;;;;;373.82;177.85;;;;;;;4.74;61.74;95049.50;1665772;84;21031;-68
2021/11/12 16:38:01;;;;;;;331.82;153.78;;;;;;;4.73;61.88;95058.28;1660079;84;21042;-67